PWSweather.com
Personal Weather Stations
Station Observations
ISARDEGN48
BittiIT 08021

BittiIT 08021

Lat: 40.4805, Lon: 9.3887

Elevation: 1804

Station Type: La Crosse WS2355

http://meteobitti.altervista.org

High Low Average
Temperature 57.9°F14.4°C 49.8°F9.9°C 54.0°F12.2°C
Dew Point 50.8°F10.4°C 46.6°F8.1°C 49.2°F9.6°C
Winds 16.6 mph 26.7 kmh Calm Calm 7.0 mph S11.3 kmh S
Wind Gusts 18.8 mph30.3 kmh 2.7 mph4.3 kmh 12.0 mph19.3 kmh
Humidity 90% 72% 84%
Pressure 29.74 in1007.1 mb 29.66 in1004.4 mb -
Precipitation 0.00 in0.0 mm - -
Hour Temp Dew Point Humidity Winds Wind Gusts Pressure Precip Precip Rate Daily Precip Total
12:00 AM 51.6°F10.9°C 48.1°F8.9°C 88% 3.1 mph SW5.0 kmh SW 5.1 mph8.2 kmh 29.68 in1005.1 mb 0.00 in0.0 mm 0.00 in0.0 mm 0.00 in0.0 mm
12:05 AM 51.6°F10.9°C 48.1°F8.9°C 88% 1.8 mph SW2.9 kmh SW 5.1 mph8.2 kmh 29.68 in1005.1 mb 0.00 in0.0 mm 0.00 in0.0 mm 0.00 in0.0 mm
12:10 AM 51.4°F10.8°C 47.9°F8.8°C 88% 2.0 mph SW3.2 kmh SW 3.4 mph5.5 kmh 29.68 in1005.1 mb 0.00 in0.0 mm 0.00 in0.0 mm 0.00 in0.0 mm
12:15 AM 51.3°F10.7°C 47.8°F8.8°C 88% 4.7 mph SW7.6 kmh SW 4.7 mph7.6 kmh 29.67 in1004.7 mb 0.00 in0.0 mm 0.00 in0.0 mm 0.00 in0.0 mm
12:20 AM 50.9°F10.5°C 47.4°F8.6°C 88% 4.5 mph SW7.2 kmh SW 6.3 mph10.1 kmh 29.67 in1004.7 mb 0.00 in0.0 mm 0.00 in0.0 mm 0.00 in0.0 mm
12:25 AM 50.7°F10.4°C 47.2°F8.4°C 88% 3.8 mph SW6.1 kmh SW 6.3 mph10.1 kmh 29.67 in1004.7 mb 0.00 in0.0 mm 0.00 in0.0 mm 0.00 in0.0 mm
12:30 AM 50.5°F10.3°C 47.4°F8.6°C 89% 2.2 mph SW3.5 kmh SW 4.3 mph6.9 kmh 29.67 in1004.7 mb 0.00 in0.0 mm 0.00 in0.0 mm 0.00 in0.0 mm
12:35 AM 50.2°F10.1°C 47.0°F8.3°C 89% 2.9 mph SW4.7 kmh SW 4.9 mph7.9 kmh 29.67 in1004.7 mb 0.00 in0.0 mm 0.00 in0.0 mm 0.00 in0.0 mm
12:40 AM 50.2°F10.1°C 47.0°F8.3°C 89% 3.4 mph SSW5.5 kmh SSW 4.9 mph7.9 kmh 29.67 in1004.7 mb 0.00 in0.0 mm 0.00 in0.0 mm 0.00 in0.0 mm
12:45 AM 49.8°F9.9°C 46.6°F8.1°C 89% 2.5 mph SSW4.0 kmh SSW 3.8 mph6.1 kmh 29.67 in1004.7 mb 0.00 in0.0 mm 0.00 in0.0 mm 0.00 in0.0 mm
12:50 AM 49.8°F9.9°C 47.0°F8.3°C 90% 4.5 mph SW7.2 kmh SW 5.1 mph8.2 kmh 29.67 in1004.7 mb 0.00 in0.0 mm 0.00 in0.0 mm 0.00 in0.0 mm
12:55 AM 50.2°F10.1°C 47.3°F8.5°C 90% 3.6 mph SW5.8 kmh SW 5.6 mph9.0 kmh 29.67 in1004.7 mb 0.00 in0.0 mm 0.00 in0.0 mm 0.00 in0.0 mm
01:00 AM 50.7°F10.4°C 47.8°F8.8°C 90% 10.1 mph SW16.3 kmh SW 10.1 mph16.3 kmh 29.67 in1004.7 mb 0.00 in0.0 mm 0.00 in0.0 mm 0.00 in0.0 mm
01:05 AM 51.6°F10.9°C 48.4°F9.1°C 89% 4.5 mph SW7.2 kmh SW 10.3 mph16.6 kmh 29.67 in1004.7 mb 0.00 in0.0 mm 0.00 in0.0 mm 0.00 in0.0 mm
01:10 AM 52.2°F11.2°C 48.7°F9.3°C 88% 2.7 mph SSW4.3 kmh SSW 10.3 mph16.6 kmh 29.67 in1004.7 mb 0.00 in0.0 mm 0.00 in0.0 mm 0.00 in0.0 mm
01:15 AM 52.3°F11.3°C 48.5°F9.2°C 87% 5.4 mph S8.7 kmh S 9.2 mph14.8 kmh 29.67 in1004.7 mb 0.00 in0.0 mm 0.00 in0.0 mm 0.00 in0.0 mm
01:20 AM 52.5°F11.4°C 49.0°F9.4°C 88% 3.6 mph S5.8 kmh S 8.5 mph13.7 kmh 29.67 in1004.7 mb 0.00 in0.0 mm 0.00 in0.0 mm 0.00 in0.0 mm
01:25 AM 52.5°F11.4°C 49.0°F9.4°C 88% 4.9 mph S7.9 kmh S 9.2 mph14.8 kmh 29.67 in1004.7 mb 0.00 in0.0 mm 0.00 in0.0 mm 0.00 in0.0 mm
01:30 AM 52.5°F11.4°C 49.0°F9.4°C 88% 2.5 mph S4.0 kmh S 9.2 mph14.8 kmh 29.67 in1004.7 mb 0.00 in0.0 mm 0.00 in0.0 mm 0.00 in0.0 mm
01:35 AM 52.3°F11.3°C 48.8°F9.3°C 88% 2.9 mph SSW4.7 kmh SSW 6.5 mph10.5 kmh 29.68 in1005.1 mb 0.00 in0.0 mm 0.00 in0.0 mm 0.00 in0.0 mm
01:40 AM 52.3°F11.3°C 48.8°F9.3°C 88% 3.1 mph SW5.0 kmh SW 7.6 mph12.2 kmh 29.67 in1004.7 mb 0.00 in0.0 mm 0.00 in0.0 mm 0.00 in0.0 mm
01:45 AM 52.3°F11.3°C 48.8°F9.3°C 88% 10.5 mph SW16.9 kmh SW 10.7 mph17.2 kmh 29.68 in1005.1 mb 0.00 in0.0 mm 0.00 in0.0 mm 0.00 in0.0 mm
01:50 AM 52.5°F11.4°C 49.0°F9.4°C 88% 8.5 mph SW13.7 kmh SW 11.4 mph18.3 kmh 29.68 in1005.1 mb 0.00 in0.0 mm 0.00 in0.0 mm 0.00 in0.0 mm
01:55 AM 52.5°F11.4°C 49.0°F9.4°C 88% 7.8 mph SSW12.6 kmh SSW 15.9 mph25.6 kmh 29.68 in1005.1 mb 0.00 in0.0 mm 0.00 in0.0 mm 0.00 in0.0 mm
02:00 AM 52.2°F11.2°C 48.7°F9.3°C 88% 11.0 mph S17.7 kmh S 15.9 mph25.6 kmh 29.68 in1005.1 mb 0.00 in0.0 mm 0.00 in0.0 mm 0.00 in0.0 mm
02:05 AM 52.0°F11.1°C 48.8°F9.3°C 89% 9.4 mph SSW15.1 kmh SSW 15.2 mph24.5 kmh 29.68 in1005.1 mb 0.00 in0.0 mm 0.00 in0.0 mm 0.00 in0.0 mm
02:10 AM 51.8°F11.0°C 48.6°F9.2°C 89% 10.7 mph SSW17.2 kmh SSW 15.9 mph25.6 kmh 29.68 in1005.1 mb 0.00 in0.0 mm 0.00 in0.0 mm 0.00 in0.0 mm
02:15 AM 51.8°F11.0°C 48.6°F9.2°C 89% 2.0 mph SSW3.2 kmh SSW 15.9 mph25.6 kmh 29.68 in1005.1 mb 0.00 in0.0 mm 0.00 in0.0 mm 0.00 in0.0 mm
02:20 AM 51.6°F10.9°C 48.4°F9.1°C 89% 11.4 mph SSW18.3 kmh SSW 13.4 mph21.6 kmh 29.68 in1005.1 mb 0.00 in0.0 mm 0.00 in0.0 mm 0.00 in0.0 mm
02:25 AM 51.6°F10.9°C 48.4°F9.1°C 89% 8.5 mph SSW13.7 kmh SSW 13.0 mph20.9 kmh 29.68 in1005.1 mb 0.00 in0.0 mm 0.00 in0.0 mm 0.00 in0.0 mm
02:30 AM 51.6°F10.9°C 48.4°F9.1°C 89% 11.6 mph SSW18.7 kmh SSW 13.9 mph22.4 kmh 29.68 in1005.1 mb 0.00 in0.0 mm 0.00 in0.0 mm 0.00 in0.0 mm
02:35 AM 51.4°F10.8°C 47.9°F8.8°C 88% 12.8 mph SSW20.6 kmh SSW 15.0 mph24.1 kmh 29.67 in1004.7 mb 0.00 in0.0 mm 0.00 in0.0 mm 0.00 in0.0 mm
02:40 AM 51.6°F10.9°C 48.4°F9.1°C 89% 11.6 mph SSW18.7 kmh SSW 17.0 mph27.4 kmh 29.67 in1004.7 mb 0.00 in0.0 mm 0.00 in0.0 mm 0.00 in0.0 mm
02:45 AM 51.8°F11.0°C 48.6°F9.2°C 89% 13.0 mph SSW20.9 kmh SSW 17.0 mph27.4 kmh 29.67 in1004.7 mb 0.00 in0.0 mm 0.00 in0.0 mm 0.00 in0.0 mm
02:50 AM 52.3°F11.3°C 49.2°F9.6°C 89% 14.1 mph SSW22.7 kmh SSW 18.6 mph29.9 kmh 29.67 in1004.7 mb 0.00 in0.0 mm 0.00 in0.0 mm 0.00 in0.0 mm
02:55 AM 52.3°F11.3°C 49.2°F9.6°C 89% 15.0 mph SSW24.1 kmh SSW 18.6 mph29.9 kmh 29.67 in1004.7 mb 0.00 in0.0 mm 0.00 in0.0 mm 0.00 in0.0 mm
03:00 AM 52.5°F11.4°C 49.3°F9.6°C 89% 15.4 mph SSW24.8 kmh SSW 18.8 mph30.3 kmh 29.67 in1004.7 mb 0.00 in0.0 mm 0.00 in0.0 mm 0.00 in0.0 mm
03:05 AM 52.3°F11.3°C 49.2°F9.6°C 89% 10.1 mph SSW16.3 kmh SSW 18.8 mph30.3 kmh 29.67 in1004.7 mb 0.00 in0.0 mm 0.00 in0.0 mm 0.00 in0.0 mm
03:10 AM 52.3°F11.3°C 49.2°F9.6°C 89% 8.3 mph SSW13.4 kmh SSW 15.4 mph24.8 kmh 29.67 in1004.7 mb 0.00 in0.0 mm 0.00 in0.0 mm 0.00 in0.0 mm
03:15 AM 52.5°F11.4°C 49.3°F9.6°C 89% 13.4 mph SSW21.6 kmh SSW 15.4 mph24.8 kmh 29.67 in1004.7 mb 0.00 in0.0 mm 0.00 in0.0 mm 0.00 in0.0 mm
03:20 AM 52.7°F11.5°C 49.5°F9.7°C 89% 16.6 mph SSW26.7 kmh SSW 17.2 mph27.7 kmh 29.67 in1004.7 mb 0.00 in0.0 mm 0.00 in0.0 mm 0.00 in0.0 mm
03:25 AM 52.9°F11.6°C 49.7°F9.8°C 89% 11.2 mph SSW18.0 kmh SSW 17.2 mph27.7 kmh 29.67 in1004.7 mb 0.00 in0.0 mm 0.00 in0.0 mm 0.00 in0.0 mm
03:30 AM 53.2°F11.8°C 49.7°F9.8°C 88% 15.2 mph SSW24.5 kmh SSW 16.6 mph26.7 kmh 29.67 in1004.7 mb 0.00 in0.0 mm 0.00 in0.0 mm 0.00 in0.0 mm
03:35 AM 53.4°F11.9°C 49.9°F9.9°C 88% 11.9 mph SSW19.2 kmh SSW 17.4 mph28.0 kmh 29.67 in1004.7 mb 0.00 in0.0 mm 0.00 in0.0 mm 0.00 in0.0 mm
03:40 AM 53.2°F11.8°C 49.7°F9.8°C 88% 13.6 mph SSW21.9 kmh SSW 17.4 mph28.0 kmh 29.67 in1004.7 mb 0.00 in0.0 mm 0.00 in0.0 mm 0.00 in0.0 mm
03:45 AM 53.2°F11.8°C 49.7°F9.8°C 88% 13.0 mph S20.9 kmh S 16.3 mph26.2 kmh 29.67 in1004.7 mb 0.00 in0.0 mm 0.00 in0.0 mm 0.00 in0.0 mm
03:50 AM 53.2°F11.8°C 49.7°F9.8°C 88% 11.6 mph S18.7 kmh S 16.8 mph27.0 kmh 29.67 in1004.7 mb 0.00 in0.0 mm 0.00 in0.0 mm 0.00 in0.0 mm
03:55 AM 53.2°F11.8°C 49.7°F9.8°C 88% 6.3 mph S10.1 kmh S 16.8 mph27.0 kmh 29.67 in1004.7 mb 0.00 in0.0 mm 0.00 in0.0 mm 0.00 in0.0 mm
04:00 AM 53.2°F11.8°C 49.7°F9.8°C 88% 11.4 mph S18.3 kmh S 14.5 mph23.3 kmh 29.67 in1004.7 mb 0.00 in0.0 mm 0.00 in0.0 mm 0.00 in0.0 mm
04:05 AM 53.2°F11.8°C 49.7°F9.8°C 88% 8.1 mph S13.0 kmh S 14.8 mph23.8 kmh 29.67 in1004.7 mb 0.00 in0.0 mm 0.00 in0.0 mm 0.00 in0.0 mm
04:10 AM 53.2°F11.8°C 49.7°F9.8°C 88% 10.1 mph SSW16.3 kmh SSW 15.2 mph24.5 kmh 29.67 in1004.7 mb 0.00 in0.0 mm 0.00 in0.0 mm 0.00 in0.0 mm
04:15 AM 53.2°F11.8°C 49.7°F9.8°C 88% 10.1 mph SSW16.3 kmh SSW 15.2 mph24.5 kmh 29.67 in1004.7 mb 0.00 in0.0 mm 0.00 in0.0 mm 0.00 in0.0 mm
04:20 AM 53.2°F11.8°C 49.7°F9.8°C 88% 10.5 mph SSW16.9 kmh SSW 15.7 mph25.3 kmh 29.66 in1004.4 mb 0.00 in0.0 mm 0.00 in0.0 mm 0.00 in0.0 mm
04:25 AM 53.2°F11.8°C 49.7°F9.8°C 88% 13.6 mph SSW21.9 kmh SSW 15.7 mph25.3 kmh 29.66 in1004.4 mb 0.00 in0.0 mm 0.00 in0.0 mm 0.00 in0.0 mm
04:30 AM 53.2°F11.8°C 49.7°F9.8°C 88% 6.3 mph SSW10.1 kmh SSW 14.5 mph23.3 kmh 29.66 in1004.4 mb 0.00 in0.0 mm 0.00 in0.0 mm 0.00 in0.0 mm
04:35 AM 52.9°F11.6°C 49.4°F9.7°C 88% 3.4 mph SSW5.5 kmh SSW 13.6 mph21.9 kmh 29.66 in1004.4 mb 0.00 in0.0 mm 0.00 in0.0 mm 0.00 in0.0 mm
04:40 AM 52.9°F11.6°C 49.4°F9.7°C 88% 8.9 mph SSW14.3 kmh SSW 14.3 mph23.0 kmh 29.66 in1004.4 mb 0.00 in0.0 mm 0.00 in0.0 mm 0.00 in0.0 mm
04:45 AM 53.1°F11.7°C 49.6°F9.8°C 88% 6.5 mph SSW10.5 kmh SSW 15.7 mph25.3 kmh 29.66 in1004.4 mb 0.00 in0.0 mm 0.00 in0.0 mm 0.00 in0.0 mm
04:50 AM 53.2°F11.8°C 49.7°F9.8°C 88% 10.3 mph SSW16.6 kmh SSW 15.7 mph25.3 kmh 29.66 in1004.4 mb 0.00 in0.0 mm 0.00 in0.0 mm 0.00 in0.0 mm
04:55 AM 53.2°F11.8°C 49.7°F9.8°C 88% 15.4 mph SSW24.8 kmh SSW 17.0 mph27.4 kmh 29.66 in1004.4 mb 0.00 in0.0 mm 0.00 in0.0 mm 0.00 in0.0 mm
05:00 AM 53.2°F11.8°C 49.7°F9.8°C 88% 15.2 mph SSW24.5 kmh SSW 18.1 mph29.1 kmh 29.66 in1004.4 mb 0.00 in0.0 mm 0.00 in0.0 mm 0.00 in0.0 mm
05:05 AM 53.2°F11.8°C 49.7°F9.8°C 88% 15.4 mph SSW24.8 kmh SSW 18.1 mph29.1 kmh 29.67 in1004.7 mb 0.00 in0.0 mm 0.00 in0.0 mm 0.00 in0.0 mm
05:10 AM 53.2°F11.8°C 49.7°F9.8°C 88% 9.4 mph SSW15.1 kmh SSW 16.6 mph26.7 kmh 29.66 in1004.4 mb 0.00 in0.0 mm 0.00 in0.0 mm 0.00 in0.0 mm
05:15 AM 53.2°F11.8°C 49.7°F9.8°C 88% 10.5 mph SSW16.9 kmh SSW 16.6 mph26.7 kmh 29.67 in1004.7 mb 0.00 in0.0 mm 0.00 in0.0 mm 0.00 in0.0 mm
05:20 AM 53.2°F11.8°C 49.7°F9.8°C 88% 6.5 mph SSW10.5 kmh SSW 15.9 mph25.6 kmh 29.67 in1004.7 mb 0.00 in0.0 mm 0.00 in0.0 mm 0.00 in0.0 mm
05:25 AM 53.2°F11.8°C 49.7°F9.8°C 88% 14.8 mph SSW23.8 kmh SSW 15.0 mph24.1 kmh 29.67 in1004.7 mb 0.00 in0.0 mm 0.00 in0.0 mm 0.00 in0.0 mm
05:30 AM 53.4°F11.9°C 49.9°F9.9°C 88% 5.1 mph SSW8.2 kmh SSW 16.3 mph26.2 kmh 29.67 in1004.7 mb 0.00 in0.0 mm 0.00 in0.0 mm 0.00 in0.0 mm
05:35 AM 53.4°F11.9°C 49.9°F9.9°C 88% 13.0 mph S20.9 kmh S 18.3 mph29.5 kmh 29.67 in1004.7 mb 0.00 in0.0 mm 0.00 in0.0 mm 0.00 in0.0 mm
05:40 AM 53.4°F11.9°C 49.9°F9.9°C 88% 10.7 mph S17.2 kmh S 18.3 mph29.5 kmh 29.67 in1004.7 mb 0.00 in0.0 mm 0.00 in0.0 mm 0.00 in0.0 mm
05:45 AM 53.4°F11.9°C 49.9°F9.9°C 88% 5.1 mph SSW8.2 kmh SSW 14.5 mph23.3 kmh 29.67 in1004.7 mb 0.00 in0.0 mm 0.00 in0.0 mm 0.00 in0.0 mm
05:50 AM 53.4°F11.9°C 49.9°F9.9°C 88% 9.2 mph S14.8 kmh S 14.5 mph23.3 kmh 29.67 in1004.7 mb 0.00 in0.0 mm 0.00 in0.0 mm 0.00 in0.0 mm
05:55 AM 53.4°F11.9°C 49.9°F9.9°C 88% 4.7 mph S7.6 kmh S 12.3 mph19.8 kmh 29.67 in1004.7 mb 0.00 in0.0 mm 0.00 in0.0 mm 0.00 in0.0 mm
06:00 AM 53.2°F11.8°C 49.7°F9.8°C 88% 4.5 mph SSW7.2 kmh SSW 11.2 mph18.0 kmh 29.68 in1005.1 mb 0.00 in0.0 mm 0.00 in0.0 mm 0.00 in0.0 mm
06:05 AM 53.2°F11.8°C 49.7°F9.8°C 88% 7.2 mph SSW11.6 kmh SSW 11.4 mph18.3 kmh 29.68 in1005.1 mb 0.00 in0.0 mm 0.00 in0.0 mm 0.00 in0.0 mm
06:10 AM 53.2°F11.8°C 49.7°F9.8°C 88% 3.4 mph SSW5.5 kmh SSW 11.4 mph18.3 kmh 29.68 in1005.1 mb 0.00 in0.0 mm 0.00 in0.0 mm 0.00 in0.0 mm
06:15 AM 53.2°F11.8°C 49.7°F9.8°C 88% 4.3 mph SSW6.9 kmh SSW 8.7 mph14.0 kmh 29.68 in1005.1 mb 0.00 in0.0 mm 0.00 in0.0 mm 0.00 in0.0 mm
06:20 AM 53.2°F11.8°C 49.7°F9.8°C 88% 6.0 mph SSW9.7 kmh SSW 10.5 mph16.9 kmh 29.68 in1005.1 mb 0.00 in0.0 mm 0.00 in0.0 mm 0.00 in0.0 mm
06:25 AM 53.1°F11.7°C 49.6°F9.8°C 88% 4.9 mph SSW7.9 kmh SSW 12.1 mph19.5 kmh 29.68 in1005.1 mb 0.00 in0.0 mm 0.00 in0.0 mm 0.00 in0.0 mm
06:30 AM 52.9°F11.6°C 49.4°F9.7°C 88% 10.1 mph SSW16.3 kmh SSW 13.6 mph21.9 kmh 29.68 in1005.1 mb 0.00 in0.0 mm 0.00 in0.0 mm 0.00 in0.0 mm
06:35 AM 52.9°F11.6°C 49.4°F9.7°C 88% 11.2 mph SSW18.0 kmh SSW 14.5 mph23.3 kmh 29.68 in1005.1 mb 0.00 in0.0 mm 0.00 in0.0 mm 0.00 in0.0 mm
06:40 AM 52.9°F11.6°C 49.4°F9.7°C 88% 9.2 mph S14.8 kmh S 18.1 mph29.1 kmh 29.68 in1005.1 mb 0.00 in0.0 mm 0.00 in0.0 mm 0.00 in0.0 mm
06:45 AM 53.1°F11.7°C 49.3°F9.6°C 87% 13.6 mph SSW21.9 kmh SSW 18.1 mph29.1 kmh 29.68 in1005.1 mb 0.00 in0.0 mm 0.00 in0.0 mm 0.00 in0.0 mm
06:50 AM 52.9°F11.6°C 49.1°F9.5°C 87% 14.1 mph SSW22.7 kmh SSW 17.4 mph28.0 kmh 29.68 in1005.1 mb 0.00 in0.0 mm 0.00 in0.0 mm 0.00 in0.0 mm
06:55 AM 52.9°F11.6°C 48.8°F9.3°C 86% 8.5 mph S13.7 kmh S 18.3 mph29.5 kmh 29.68 in1005.1 mb 0.00 in0.0 mm 0.00 in0.0 mm 0.00 in0.0 mm
07:00 AM 53.1°F11.7°C 49.0°F9.4°C 86% 9.8 mph S15.8 kmh S 18.3 mph29.5 kmh 29.68 in1005.1 mb 0.00 in0.0 mm 0.00 in0.0 mm 0.00 in0.0 mm
07:05 AM 52.9°F11.6°C 48.8°F9.3°C 86% 14.1 mph S22.7 kmh S 16.6 mph26.7 kmh 29.69 in1005.4 mb 0.00 in0.0 mm 0.00 in0.0 mm 0.00 in0.0 mm
07:10 AM 52.9°F11.6°C 48.8°F9.3°C 86% 7.2 mph SSW11.6 kmh SSW 14.5 mph23.3 kmh 29.69 in1005.4 mb 0.00 in0.0 mm 0.00 in0.0 mm 0.00 in0.0 mm
07:15 AM 52.9°F11.6°C 48.8°F9.3°C 86% 3.4 mph SSW5.5 kmh SSW 13.6 mph21.9 kmh 29.69 in1005.4 mb 0.00 in0.0 mm 0.00 in0.0 mm 0.00 in0.0 mm
07:20 AM 52.9°F11.6°C 48.8°F9.3°C 86% 2.7 mph S4.3 kmh S 17.0 mph27.4 kmh 29.69 in1005.4 mb 0.00 in0.0 mm 0.00 in0.0 mm 0.00 in0.0 mm
07:25 AM 52.9°F11.6°C 48.8°F9.3°C 86% 10.5 mph S16.9 kmh S 17.0 mph27.4 kmh 29.69 in1005.4 mb 0.00 in0.0 mm 0.00 in0.0 mm 0.00 in0.0 mm
07:30 AM 52.7°F11.5°C 48.6°F9.2°C 86% 11.4 mph S18.3 kmh S 15.9 mph25.6 kmh 29.69 in1005.4 mb 0.00 in0.0 mm 0.00 in0.0 mm 0.00 in0.0 mm
07:35 AM 52.7°F11.5°C 48.6°F9.2°C 86% 11.2 mph S18.0 kmh S 13.9 mph22.4 kmh 29.69 in1005.4 mb 0.00 in0.0 mm 0.00 in0.0 mm 0.00 in0.0 mm
07:40 AM 52.7°F11.5°C 48.6°F9.2°C 86% 3.8 mph S6.1 kmh S 13.9 mph22.4 kmh 29.69 in1005.4 mb 0.00 in0.0 mm 0.00 in0.0 mm 0.00 in0.0 mm
07:45 AM 52.7°F11.5°C 48.6°F9.2°C 86% 8.9 mph SSW14.3 kmh SSW 11.9 mph19.2 kmh 29.69 in1005.4 mb 0.00 in0.0 mm 0.00 in0.0 mm 0.00 in0.0 mm
07:50 AM 52.7°F11.5°C 48.6°F9.2°C 86% 5.8 mph S9.3 kmh S 13.6 mph21.9 kmh 29.70 in1005.8 mb 0.00 in0.0 mm 0.00 in0.0 mm 0.00 in0.0 mm
07:55 AM 52.7°F11.5°C 48.3°F9.1°C 85% 6.5 mph S10.5 kmh S 13.6 mph21.9 kmh 29.70 in1005.8 mb 0.00 in0.0 mm 0.00 in0.0 mm 0.00 in0.0 mm
08:00 AM 52.9°F11.6°C 48.5°F9.2°C 85% 4.5 mph S7.2 kmh S 10.5 mph16.9 kmh 29.70 in1005.8 mb 0.00 in0.0 mm 0.00 in0.0 mm 0.00 in0.0 mm
08:05 AM 52.9°F11.6°C 48.5°F9.2°C 85% 4.0 mph S6.4 kmh S 8.1 mph13.0 kmh 29.70 in1005.8 mb 0.00 in0.0 mm 0.00 in0.0 mm 0.00 in0.0 mm
08:10 AM 52.9°F11.6°C 48.5°F9.2°C 85% 2.5 mph S4.0 kmh S 7.2 mph11.6 kmh 29.70 in1005.8 mb 0.00 in0.0 mm 0.00 in0.0 mm 0.00 in0.0 mm
08:15 AM 52.9°F11.6°C 48.5°F9.2°C 85% 5.1 mph S8.2 kmh S 7.6 mph12.2 kmh 29.70 in1005.8 mb 0.00 in0.0 mm 0.00 in0.0 mm 0.00 in0.0 mm
08:20 AM 52.9°F11.6°C 48.5°F9.2°C 85% 3.4 mph S5.5 kmh S 7.6 mph12.2 kmh 29.70 in1005.8 mb 0.00 in0.0 mm 0.00 in0.0 mm 0.00 in0.0 mm
08:25 AM 52.9°F11.6°C 48.5°F9.2°C 85% Calm Calm 7.2 mph11.6 kmh 29.71 in1006.1 mb 0.00 in0.0 mm 0.00 in0.0 mm 0.00 in0.0 mm
08:30 AM 52.9°F11.6°C 48.5°F9.2°C 85% Calm Calm 5.8 mph9.3 kmh 29.71 in1006.1 mb 0.00 in0.0 mm 0.00 in0.0 mm 0.00 in0.0 mm
08:35 AM 52.9°F11.6°C 48.5°F9.2°C 85% Calm Calm 5.8 mph9.3 kmh 29.71 in1006.1 mb 0.00 in0.0 mm 0.00 in0.0 mm 0.00 in0.0 mm
08:40 AM 52.9°F11.6°C 48.5°F9.2°C 85% Calm Calm 3.1 mph5.0 kmh 29.71 in1006.1 mb 0.00 in0.0 mm 0.00 in0.0 mm 0.00 in0.0 mm
08:45 AM 52.9°F11.6°C 48.5°F9.2°C 85% Calm Calm 5.1 mph8.2 kmh 29.71 in1006.1 mb 0.00 in0.0 mm 0.00 in0.0 mm 0.00 in0.0 mm
08:50 AM 52.9°F11.6°C 48.5°F9.2°C 85% Calm Calm 5.1 mph8.2 kmh 29.71 in1006.1 mb 0.00 in0.0 mm 0.00 in0.0 mm 0.00 in0.0 mm
08:55 AM 52.9°F11.6°C 48.5°F9.2°C 85% 2.9 mph E4.7 kmh E 3.8 mph6.1 kmh 29.71 in1006.1 mb 0.00 in0.0 mm 0.00 in0.0 mm 0.00 in0.0 mm
09:00 AM 52.9°F11.6°C 48.5°F9.2°C 85% Calm Calm 3.8 mph6.1 kmh 29.72 in1006.4 mb 0.00 in0.0 mm 0.00 in0.0 mm 0.00 in0.0 mm
09:05 AM 52.9°F11.6°C 48.5°F9.2°C 85% Calm Calm 3.6 mph5.8 kmh 29.72 in1006.4 mb 0.00 in0.0 mm 0.00 in0.0 mm 0.00 in0.0 mm
09:10 AM 53.1°F11.7°C 48.7°F9.3°C 85% 1.3 mph E2.1 kmh E 3.1 mph5.0 kmh 29.72 in1006.4 mb 0.00 in0.0 mm 0.00 in0.0 mm 0.00 in0.0 mm
09:15 AM 52.9°F11.6°C 48.5°F9.2°C 85% Calm Calm 2.7 mph4.3 kmh 29.72 in1006.4 mb 0.00 in0.0 mm 0.00 in0.0 mm 0.00 in0.0 mm
09:20 AM 53.1°F11.7°C 48.7°F9.3°C 85% Calm Calm 3.8 mph6.1 kmh 29.72 in1006.4 mb 0.00 in0.0 mm 0.00 in0.0 mm 0.00 in0.0 mm
09:25 AM 53.2°F11.8°C 48.8°F9.3°C 85% 1.3 mph ENE2.1 kmh ENE 4.5 mph7.2 kmh 29.72 in1006.4 mb 0.00 in0.0 mm 0.00 in0.0 mm 0.00 in0.0 mm
09:30 AM 53.4°F11.9°C 49.0°F9.4°C 85% Calm Calm 5.1 mph8.2 kmh 29.72 in1006.4 mb 0.00 in0.0 mm 0.00 in0.0 mm 0.00 in0.0 mm
09:35 AM 53.4°F11.9°C 49.0°F9.4°C 85% 3.8 mph E6.1 kmh E 5.1 mph8.2 kmh 29.72 in1006.4 mb 0.00 in0.0 mm 0.00 in0.0 mm 0.00 in0.0 mm
09:40 AM 53.4°F11.9°C 49.0°F9.4°C 85% 2.2 mph E3.5 kmh E 4.7 mph7.6 kmh 29.72 in1006.4 mb 0.00 in0.0 mm 0.00 in0.0 mm 0.00 in0.0 mm
09:45 AM 53.6°F12.0°C 49.2°F9.6°C 85% Calm Calm 4.5 mph7.2 kmh 29.72 in1006.4 mb 0.00 in0.0 mm 0.00 in0.0 mm 0.00 in0.0 mm
09:50 AM 54.1°F12.3°C 49.7°F9.8°C 85% Calm Calm 4.5 mph7.2 kmh 29.72 in1006.4 mb 0.00 in0.0 mm 0.00 in0.0 mm 0.00 in0.0 mm
09:55 AM 54.7°F12.6°C 49.9°F9.9°C 84% 2.7 mph SE4.3 kmh SE 4.5 mph7.2 kmh 29.72 in1006.4 mb 0.00 in0.0 mm 0.00 in0.0 mm 0.00 in0.0 mm
10:00 AM 55.2°F12.9°C 50.4°F10.2°C 84% 6.5 mph S10.5 kmh S 6.5 mph10.5 kmh 29.72 in1006.4 mb 0.00 in0.0 mm 0.00 in0.0 mm 0.00 in0.0 mm
10:05 AM 55.8°F13.2°C 50.6°F10.3°C 83% Calm Calm 7.6 mph12.2 kmh 29.72 in1006.4 mb 0.00 in0.0 mm 0.00 in0.0 mm 0.00 in0.0 mm
10:10 AM 55.9°F13.3°C 50.5°F10.3°C 82% 4.0 mph S6.4 kmh S 7.6 mph12.2 kmh 29.73 in1006.8 mb 0.00 in0.0 mm 0.00 in0.0 mm 0.00 in0.0 mm
10:15 AM 56.1°F13.4°C 50.6°F10.3°C 82% 6.3 mph S10.1 kmh S 9.6 mph15.4 kmh 29.73 in1006.8 mb 0.00 in0.0 mm 0.00 in0.0 mm 0.00 in0.0 mm
10:20 AM 56.1°F13.4°C 50.3°F10.2°C 81% 8.1 mph S13.0 kmh S 11.9 mph19.2 kmh 29.73 in1006.8 mb 0.00 in0.0 mm 0.00 in0.0 mm 0.00 in0.0 mm
10:25 AM 55.8°F13.2°C 50.0°F10.0°C 81% 10.5 mph S16.9 kmh S 15.2 mph24.5 kmh 29.73 in1006.8 mb 0.00 in0.0 mm 0.00 in0.0 mm 0.00 in0.0 mm
10:30 AM 55.6°F13.1°C 49.8°F9.9°C 81% 13.2 mph SSW21.2 kmh SSW 15.7 mph25.3 kmh 29.73 in1006.8 mb 0.00 in0.0 mm 0.00 in0.0 mm 0.00 in0.0 mm
10:35 AM 55.4°F13.0°C 49.9°F9.9°C 82% 9.2 mph SSW14.8 kmh SSW 18.3 mph29.5 kmh 29.73 in1006.8 mb 0.00 in0.0 mm 0.00 in0.0 mm 0.00 in0.0 mm
10:40 AM 55.6°F13.1°C 50.1°F10.1°C 82% 9.2 mph SSW14.8 kmh SSW 18.3 mph29.5 kmh 29.73 in1006.8 mb 0.00 in0.0 mm 0.00 in0.0 mm 0.00 in0.0 mm
10:45 AM 55.6°F13.1°C 50.1°F10.1°C 82% 3.4 mph S5.5 kmh S 17.2 mph27.7 kmh 29.74 in1007.1 mb 0.00 in0.0 mm 0.00 in0.0 mm 0.00 in0.0 mm
10:50 AM 55.6°F13.1°C 50.1°F10.1°C 82% 5.4 mph S8.7 kmh S 13.9 mph22.4 kmh 29.73 in1006.8 mb 0.00 in0.0 mm 0.00 in0.0 mm 0.00 in0.0 mm
10:55 AM 55.2°F12.9°C 49.7°F9.8°C 82% 9.2 mph S14.8 kmh S 15.0 mph24.1 kmh 29.74 in1007.1 mb 0.00 in0.0 mm 0.00 in0.0 mm 0.00 in0.0 mm
11:00 AM 55.2°F12.9°C 50.1°F10.1°C 83% 3.1 mph S5.0 kmh S 15.0 mph24.1 kmh 29.73 in1006.8 mb 0.00 in0.0 mm 0.00 in0.0 mm 0.00 in0.0 mm
11:05 AM 55.2°F12.9°C 50.1°F10.1°C 83% 4.5 mph S7.2 kmh S 9.2 mph14.8 kmh 29.73 in1006.8 mb 0.00 in0.0 mm 0.00 in0.0 mm 0.00 in0.0 mm
11:10 AM 55.6°F13.1°C 50.8°F10.4°C 84% 3.8 mph S6.1 kmh S 8.3 mph13.4 kmh 29.73 in1006.8 mb 0.00 in0.0 mm 0.00 in0.0 mm 0.00 in0.0 mm
11:15 AM 55.8°F13.2°C 50.6°F10.3°C 83% 6.7 mph S10.8 kmh S 10.5 mph16.9 kmh 29.73 in1006.8 mb 0.00 in0.0 mm 0.00 in0.0 mm 0.00 in0.0 mm
11:20 AM 55.6°F13.1°C 50.4°F10.2°C 83% 10.7 mph S17.2 kmh S 13.2 mph21.2 kmh 29.73 in1006.8 mb 0.00 in0.0 mm 0.00 in0.0 mm 0.00 in0.0 mm
11:25 AM 55.4°F13.0°C 50.3°F10.2°C 83% 12.8 mph SSW20.6 kmh SSW 17.2 mph27.7 kmh 29.73 in1006.8 mb 0.00 in0.0 mm 0.00 in0.0 mm 0.00 in0.0 mm
11:30 AM 55.6°F13.1°C 50.4°F10.2°C 83% 5.8 mph S9.3 kmh S 17.2 mph27.7 kmh 29.73 in1006.8 mb 0.00 in0.0 mm 0.00 in0.0 mm 0.00 in0.0 mm
11:35 AM 55.8°F13.2°C 50.3°F10.2°C 82% 7.4 mph S11.9 kmh S 15.2 mph24.5 kmh 29.72 in1006.4 mb 0.00 in0.0 mm 0.00 in0.0 mm 0.00 in0.0 mm
11:40 AM 55.8°F13.2°C 50.3°F10.2°C 82% 13.0 mph SSW20.9 kmh SSW 18.8 mph30.3 kmh 29.72 in1006.4 mb 0.00 in0.0 mm 0.00 in0.0 mm 0.00 in0.0 mm
11:45 AM 55.9°F13.3°C 50.5°F10.3°C 82% 6.0 mph SSW9.7 kmh SSW 18.8 mph30.3 kmh 29.72 in1006.4 mb 0.00 in0.0 mm 0.00 in0.0 mm 0.00 in0.0 mm
11:50 AM 55.9°F13.3°C 50.1°F10.1°C 81% 5.6 mph S9.0 kmh S 14.8 mph23.8 kmh 29.72 in1006.4 mb 0.00 in0.0 mm 0.00 in0.0 mm 0.00 in0.0 mm
11:55 AM 56.1°F13.4°C 50.0°F10.0°C 80% 6.0 mph S9.7 kmh S 15.4 mph24.8 kmh 29.71 in1006.1 mb 0.00 in0.0 mm 0.00 in0.0 mm 0.00 in0.0 mm
12:00 PM 56.5°F13.6°C 50.4°F10.2°C 80% 6.9 mph S11.1 kmh S 15.4 mph24.8 kmh 29.71 in1006.1 mb 0.00 in0.0 mm 0.00 in0.0 mm 0.00 in0.0 mm
12:05 PM 56.8°F13.8°C 50.4°F10.2°C 79% 2.7 mph SSW4.3 kmh SSW 11.9 mph19.2 kmh 29.71 in1006.1 mb 0.00 in0.0 mm 0.00 in0.0 mm 0.00 in0.0 mm
12:10 PM 57.2°F14.0°C 50.4°F10.2°C 78% 3.8 mph S6.1 kmh S 11.0 mph17.7 kmh 29.71 in1006.1 mb 0.00 in0.0 mm 0.00 in0.0 mm 0.00 in0.0 mm
12:15 PM 57.6°F14.2°C 50.4°F10.2°C 77% 2.7 mph S4.3 kmh S 10.3 mph16.6 kmh 29.71 in1006.1 mb 0.00 in0.0 mm 0.00 in0.0 mm 0.00 in0.0 mm
12:20 PM 57.7°F14.3°C 50.2°F10.1°C 76% 6.9 mph SSE11.1 kmh SSE 10.3 mph16.6 kmh 29.71 in1006.1 mb 0.00 in0.0 mm 0.00 in0.0 mm 0.00 in0.0 mm
12:25 PM 57.6°F14.2°C 49.3°F9.6°C 74% 8.5 mph S13.7 kmh S 11.4 mph18.3 kmh 29.71 in1006.1 mb 0.00 in0.0 mm 0.00 in0.0 mm 0.00 in0.0 mm
12:30 PM 57.4°F14.1°C 49.1°F9.5°C 74% 7.2 mph SSW11.6 kmh SSW 13.2 mph21.2 kmh 29.71 in1006.1 mb 0.00 in0.0 mm 0.00 in0.0 mm 0.00 in0.0 mm
12:35 PM 57.0°F13.9°C 48.7°F9.3°C 74% 10.5 mph SSW16.9 kmh SSW 16.1 mph25.9 kmh 29.71 in1006.1 mb 0.00 in0.0 mm 0.00 in0.0 mm 0.00 in0.0 mm
12:40 PM 57.0°F13.9°C 48.7°F9.3°C 74% 9.2 mph S14.8 kmh S 16.1 mph25.9 kmh 29.71 in1006.1 mb 0.00 in0.0 mm 0.00 in0.0 mm 0.00 in0.0 mm
12:45 PM 57.0°F13.9°C 48.7°F9.3°C 74% 6.5 mph S10.5 kmh S 17.4 mph28.0 kmh 29.71 in1006.1 mb 0.00 in0.0 mm 0.00 in0.0 mm 0.00 in0.0 mm
12:50 PM 57.2°F14.0°C 48.9°F9.4°C 74% 5.4 mph S8.7 kmh S 17.4 mph28.0 kmh 29.71 in1006.1 mb 0.00 in0.0 mm 0.00 in0.0 mm 0.00 in0.0 mm
12:55 PM 57.4°F14.1°C 49.1°F9.5°C 74% 4.3 mph S6.9 kmh S 17.2 mph27.7 kmh 29.71 in1006.1 mb 0.00 in0.0 mm 0.00 in0.0 mm 0.00 in0.0 mm
01:00 PM 57.4°F14.1°C 49.1°F9.5°C 74% 2.7 mph S4.3 kmh S 14.3 mph23.0 kmh 29.71 in1006.1 mb 0.00 in0.0 mm 0.00 in0.0 mm 0.00 in0.0 mm
01:05 PM 57.7°F14.3°C 49.1°F9.5°C 73% Calm Calm 9.8 mph15.8 kmh 29.71 in1006.1 mb 0.00 in0.0 mm 0.00 in0.0 mm 0.00 in0.0 mm
01:10 PM 57.7°F14.3°C 48.7°F9.3°C 72% 1.8 mph SSE2.9 kmh SSE 7.6 mph12.2 kmh 29.71 in1006.1 mb 0.00 in0.0 mm 0.00 in0.0 mm 0.00 in0.0 mm
01:15 PM 57.9°F14.4°C 48.9°F9.4°C 72% 2.5 mph ESE4.0 kmh ESE 6.3 mph10.1 kmh 29.71 in1006.1 mb 0.00 in0.0 mm 0.00 in0.0 mm 0.00 in0.0 mm
01:20 PM 57.9°F14.4°C 49.3°F9.6°C 73% 4.5 mph SSE7.2 kmh SSE 8.5 mph13.7 kmh 29.71 in1006.1 mb 0.00 in0.0 mm 0.00 in0.0 mm 0.00 in0.0 mm
01:25 PM 57.9°F14.4°C 49.3°F9.6°C 73% 2.9 mph SSW4.7 kmh SSW 13.2 mph21.2 kmh 29.71 in1006.1 mb 0.00 in0.0 mm 0.00 in0.0 mm 0.00 in0.0 mm
01:30 PM 57.7°F14.3°C 49.1°F9.5°C 73% 7.4 mph S11.9 kmh S 15.9 mph25.6 kmh 29.70 in1005.8 mb 0.00 in0.0 mm 0.00 in0.0 mm 0.00 in0.0 mm
01:35 PM 57.6°F14.2°C 49.3°F9.6°C 74% 2.9 mph S4.7 kmh S 15.9 mph25.6 kmh 29.70 in1005.8 mb 0.00 in0.0 mm 0.00 in0.0 mm 0.00 in0.0 mm
01:40 PM 57.6°F14.2°C 49.6°F9.8°C 75% 2.0 mph S3.2 kmh S 12.8 mph20.6 kmh 29.70 in1005.8 mb 0.00 in0.0 mm 0.00 in0.0 mm 0.00 in0.0 mm
01:45 PM 57.4°F14.1°C 49.8°F9.9°C 76% 3.1 mph S5.0 kmh S 11.4 mph18.3 kmh 29.70 in1005.8 mb 0.00 in0.0 mm 0.00 in0.0 mm 0.00 in0.0 mm
01:50 PM 57.4°F14.1°C 49.8°F9.9°C 76% 2.2 mph S3.5 kmh S 11.4 mph18.3 kmh 29.71 in1006.1 mb 0.00 in0.0 mm 0.00 in0.0 mm 0.00 in0.0 mm
01:55 PM 57.2°F14.0°C 49.6°F9.8°C 76% 1.6 mph SSW2.6 kmh SSW 10.7 mph17.2 kmh 29.70 in1005.8 mb 0.00 in0.0 mm 0.00 in0.0 mm 0.00 in0.0 mm
02:00 PM 57.4°F14.1°C 49.5°F9.7°C 75% 5.1 mph S8.2 kmh S 10.1 mph16.3 kmh 29.70 in1005.8 mb 0.00 in0.0 mm 0.00 in0.0 mm 0.00 in0.0 mm
02:05 PM 57.4°F14.1°C 49.5°F9.7°C 75% 9.8 mph S15.8 kmh S 9.8 mph15.8 kmh 29.70 in1005.8 mb 0.00 in0.0 mm 0.00 in0.0 mm 0.00 in0.0 mm
02:10 PM 57.4°F14.1°C 49.1°F9.5°C 74% 10.1 mph S16.3 kmh S 14.3 mph23.0 kmh 29.70 in1005.8 mb 0.00 in0.0 mm 0.00 in0.0 mm 0.00 in0.0 mm
02:15 PM 57.4°F14.1°C 49.5°F9.7°C 75% 6.5 mph S10.5 kmh S 14.8 mph23.8 kmh 29.71 in1006.1 mb 0.00 in0.0 mm 0.00 in0.0 mm 0.00 in0.0 mm
02:20 PM 57.4°F14.1°C 49.5°F9.7°C 75% 2.7 mph S4.3 kmh S 14.8 mph23.8 kmh 29.71 in1006.1 mb 0.00 in0.0 mm 0.00 in0.0 mm 0.00 in0.0 mm
02:25 PM 57.6°F14.2°C 49.3°F9.6°C 74% 4.3 mph S6.9 kmh S 13.2 mph21.2 kmh 29.71 in1006.1 mb 0.00 in0.0 mm 0.00 in0.0 mm 0.00 in0.0 mm
02:30 PM 57.7°F14.3°C 49.5°F9.7°C 74% 1.3 mph S2.1 kmh S 7.2 mph11.6 kmh 29.70 in1005.8 mb 0.00 in0.0 mm 0.00 in0.0 mm 0.00 in0.0 mm
02:35 PM 57.9°F14.4°C 49.6°F9.8°C 74% Calm Calm 4.7 mph7.6 kmh 29.71 in1006.1 mb 0.00 in0.0 mm 0.00 in0.0 mm 0.00 in0.0 mm
02:40 PM 57.7°F14.3°C 49.5°F9.7°C 74% 7.6 mph E12.2 kmh E 8.5 mph13.7 kmh 29.70 in1005.8 mb 0.00 in0.0 mm 0.00 in0.0 mm 0.00 in0.0 mm
02:45 PM 57.7°F14.3°C 48.7°F9.3°C 72% Calm Calm 8.5 mph13.7 kmh 29.71 in1006.1 mb 0.00 in0.0 mm 0.00 in0.0 mm 0.00 in0.0 mm